Terminal Aerodrome Forecast
Issued by NWS

Home | Current Version | Previous Version | Text Only | Print | Product List | Glossary On
Versions: 1 2 3 4 5 6 7 8 9 10 11 12 13 14 15 16 17 18 19
000
FTUS43 KILX 220500
TAFBMI
TAF
KBMI 220520Z 2206/2306 19006KT P6SM VCTS SCT050CB BKN100
      TEMPO 2207/2210 4SM TSRA BR BKN030CB
     FM221300 23008KT P6SM VCSH BKN050
     FM222000 24010KT P6SM VCTS SCT035CB BKN250
     FM230100 25005KT P6SM BKN250=

USA.gov is the U.S. government's official web portal to all federal, state and local government web resources and services.